createdAt,value
2019-04-25T00:01:46.609Z,59832.93
2019-04-25T00:04:16.705Z,59843.09
2019-04-25T00:06:45.163Z,59843.09
2019-04-25T00:09:15.252Z,59812.61
2019-04-25T00:11:46.546Z,59812.61
2019-04-25T00:14:14.733Z,59831.91
2019-04-25T00:16:45.228Z,59831.91
2019-04-25T00:19:14.471Z,59823.79
2019-04-25T00:22:01.879Z,59823.79
2019-04-25T00:24:37.739Z,59852.23
2019-04-25T00:27:06.147Z,59809.56
2019-04-25T00:29:34.538Z,59847.15
2019-04-25T00:32:03.131Z,59851.22
2019-04-25T00:34:31.669Z,59826.83
2019-04-25T00:37:02.525Z,59838.01
2019-04-25T00:39:31.994Z,59844.11
2019-04-25T00:42:02.158Z,59844.11
2019-04-25T00:44:31.954Z,59848.17
2019-04-25T00:47:02.279Z,59848.17
2019-04-25T00:49:32.079Z,59853.25
2019-04-25T00:52:01.986Z,59808.55
2019-04-25T00:54:31.354Z,59841.06
2019-04-25T00:56:59.827Z,59841.06
2019-04-25T00:59:42.952Z,59842.07
2019-04-25T01:02:16.318Z,59864.43
2019-04-25T01:04:45.194Z,59864.43
2019-04-25T01:07:13.833Z,59838.01
2019-04-25T01:09:42.468Z,59857.32
2019-04-25T01:12:11.652Z,59825.82
2019-04-25T01:14:42.020Z,59831.91
2019-04-25T01:17:11.670Z,59831.91
2019-04-25T01:19:40.145Z,59857.32
2019-04-25T01:22:08.812Z,59833.95
2019-04-25T01:24:37.365Z,59833.95
2019-04-25T01:27:07.200Z,59839.03
2019-04-25T01:29:35.659Z,59839.03
2019-04-25T01:32:05.397Z,59828.86
2019-04-25T01:34:35.429Z,59828.86
2019-04-25T01:37:05.879Z,59835.98
2019-04-25T01:39:48.932Z,59842.07
2019-04-25T01:42:19.312Z,59822.77
2019-04-25T01:44:49.576Z,59841.06
2019-04-25T01:47:18.592Z,59843.09
2019-04-25T01:49:46.987Z,59843.09
2019-04-25T01:52:15.679Z,59829.88
2019-04-25T01:54:44.080Z,59818.70
2019-04-25T01:57:14.270Z,59848.17
2019-04-25T01:59:43.828Z,59833.95
2019-04-25T02:02:14.134Z,59850.20
2019-04-25T02:04:44.230Z,59856.30
2019-04-25T02:07:13.515Z,59849.18
2019-04-25T02:09:43.464Z,59836.99
2019-04-25T02:12:15.474Z,59858.33
2019-04-25T02:14:43.959Z,59858.33
2019-04-25T02:17:14.161Z,59823.79
2019-04-25T02:19:44.150Z,59851.22
2019-04-25T02:22:12.589Z,59839.03
2019-04-25T02:24:40.965Z,59839.03
2019-04-25T02:27:09.511Z,59822.77
2019-04-25T02:29:37.912Z,59841.06
2019-04-25T02:32:08.904Z,59854.27
2019-04-25T02:34:36.794Z,59831.91
2019-04-25T02:37:09.414Z,59841.06
2019-04-25T02:39:37.425Z,59836.99
2019-04-25T02:42:08.194Z,59835.98
2019-04-25T02:44:38.422Z,59844.11
2019-04-25T02:47:11.246Z,59840.04
2019-04-25T02:49:41.288Z,59839.03
2019-04-25T02:52:17.667Z,59843.09
2019-04-25T02:54:44.881Z,59828.86
2019-04-25T02:57:14.643Z,59838.01
2019-04-25T02:59:45.150Z,59828.86
2019-04-25T03:02:15.398Z,59825.82
2019-04-25T03:04:44.527Z,59847.15
2019-04-25T03:07:16.865Z,59854.27
2019-04-25T03:09:45.142Z,59865.44
2019-04-25T03:12:26.861Z,59846.14
2019-04-25T03:14:44.582Z,59858.33
2019-04-25T03:17:14.335Z,59843.09
2019-04-25T03:19:44.597Z,59814.64
2019-04-25T03:22:15.257Z,59849.18
2019-04-25T03:24:45.838Z,59860.36
2019-04-25T03:27:14.299Z,59860.36
2019-04-25T03:29:44.217Z,59846.14
2019-04-25T03:32:16.344Z,59846.14
2019-04-25T03:34:43.524Z,59848.17
2019-04-25T03:37:13.636Z,59840.04
2019-04-25T03:39:43.551Z,59861.38
2019-04-25T03:42:13.978Z,59834.96
2019-04-25T03:44:43.822Z,59855.28
2019-04-25T03:47:13.511Z,59844.11
2019-04-25T03:49:43.332Z,59840.04
2019-04-25T03:52:13.766Z,59863.41
2019-04-25T03:54:43.409Z,59863.41
2019-04-25T03:57:14.462Z,59863.41
2019-04-25T03:59:43.686Z,59855.28
2019-04-25T04:02:13.494Z,59844.11
2019-04-25T04:04:43.507Z,59841.06
2019-04-25T04:07:12.765Z,59859.35
2019-04-25T04:09:43.532Z,59857.32
2019-04-25T04:12:12.508Z,59871.54
2019-04-25T04:14:41.452Z,59833.95
2019-04-25T04:17:11.467Z,59833.95
2019-04-25T04:19:45.271Z,59846.14
2019-04-25T04:22:21.032Z,59858.33
2019-04-25T04:24:51.359Z,59828.86
2019-04-25T04:27:19.766Z,59848.17
2019-04-25T04:29:48.151Z,59852.23
2019-04-25T04:32:17.379Z,59840.04
2019-04-25T04:34:45.829Z,59855.28
2019-04-25T04:37:15.796Z,59839.03
2019-04-25T04:39:44.323Z,59867.47
2019-04-25T04:42:14.015Z,59852.23
2019-04-25T04:44:43.758Z,59827.85
2019-04-25T04:47:14.065Z,59827.85
2019-04-25T04:49:43.817Z,59872.55
2019-04-25T04:52:14.352Z,59835.98
2019-04-25T04:54:43.948Z,59843.09
2019-04-25T04:57:25.743Z,59843.09
2019-04-25T04:59:43.843Z,59847.15
2019-04-25T05:02:15.841Z,59829.88
2019-04-25T05:05:01.502Z,59869.51
2019-04-25T05:07:40.665Z,59834.96
2019-04-25T05:10:09.423Z,59859.35
2019-04-25T05:12:37.808Z,59856.30
2019-04-25T05:15:08.298Z,59867.47
2019-04-25T05:17:36.708Z,59867.47
2019-04-25T05:20:06.447Z,59856.30
2019-04-25T05:22:34.831Z,59848.17
2019-04-25T05:25:03.561Z,59848.17
2019-04-25T05:27:42.653Z,59826.83
2019-04-25T05:30:04.011Z,59851.22
2019-04-25T05:32:34.241Z,59861.38
2019-04-25T05:35:03.367Z,59859.35
2019-04-25T05:37:33.399Z,59859.35
2019-04-25T05:40:03.703Z,59844.11
2019-04-25T05:42:52.071Z,59844.11
2019-04-25T05:45:23.809Z,59835.98
2019-04-25T05:47:54.087Z,59855.28
2019-04-25T05:50:24.291Z,59824.80
2019-04-25T05:52:54.168Z,59845.12
2019-04-25T05:55:24.169Z,59842.07
2019-04-25T05:57:56.550Z,59838.01
2019-04-25T06:00:26.013Z,59860.36
2019-04-25T06:02:55.267Z,59828.86
2019-04-25T06:05:26.254Z,59858.33
2019-04-25T06:07:54.366Z,59858.33
2019-04-25T06:10:41.349Z,59823.79
2019-04-25T06:13:28.677Z,59853.25
2019-04-25T06:15:58.879Z,59853.25
2019-04-25T06:18:28.874Z,59868.49
2019-04-25T06:20:57.300Z,59840.04
2019-04-25T06:23:44.339Z,59841.06
2019-04-25T06:26:23.099Z,59841.06
2019-04-25T06:28:53.789Z,59846.14
2019-04-25T06:31:15.692Z,59815.66
2019-04-25T06:33:44.115Z,59830.90
2019-04-25T06:36:13.888Z,59828.86
2019-04-25T06:38:44.272Z,59830.90
2019-04-25T06:41:13.478Z,59830.90
2019-04-25T06:43:44.215Z,59838.01
2019-04-25T06:46:17.754Z,59833.95
2019-04-25T06:48:47.843Z,59828.86
2019-04-25T06:51:16.560Z,59834.96
2019-04-25T06:53:44.974Z,59820.74
2019-04-25T06:56:13.847Z,59828.86
2019-04-25T06:58:43.362Z,59840.04
2019-04-25T07:01:13.473Z,59841.06
2019-04-25T07:03:42.244Z,59832.93
2019-04-25T07:06:10.899Z,59804.48
2019-04-25T07:08:39.335Z,59813.62
2019-04-25T07:11:07.712Z,59809.56
2019-04-25T07:13:38.800Z,59829.88
2019-04-25T07:16:06.293Z,59808.55
2019-04-25T07:18:37.230Z,59797.37
2019-04-25T07:21:05.350Z,59790.26
2019-04-25T07:23:34.571Z,59809.56
2019-04-25T07:26:04.696Z,59809.56
2019-04-25T07:28:37.964Z,59816.67
2019-04-25T07:31:08.362Z,59818.70
2019-04-25T07:33:41.105Z,59817.69
2019-04-25T07:36:09.762Z,59823.79
2019-04-25T07:38:38.169Z,59779.08
2019-04-25T07:41:06.695Z,59832.93
2019-04-25T07:43:35.437Z,59804.48
2019-04-25T07:46:05.313Z,59818.70
2019-04-25T07:48:36.631Z,59819.72
2019-04-25T07:51:03.828Z,59798.38
2019-04-25T07:53:33.918Z,59816.67
2019-04-25T07:56:04.125Z,59797.37
2019-04-25T07:58:49.548Z,59783.14
2019-04-25T08:01:14.070Z,59804.48
2019-04-25T08:03:43.829Z,59788.23
2019-04-25T08:06:13.770Z,59799.40
2019-04-25T08:08:43.605Z,59793.30
2019-04-25T08:11:14.040Z,59783.14
2019-04-25T08:13:50.279Z,59805.50
2019-04-25T08:16:20.318Z,59804.48
2019-04-25T08:18:50.112Z,59807.53
2019-04-25T08:21:18.562Z,59802.45
2019-04-25T08:23:48.003Z,59800.42
2019-04-25T08:26:16.456Z,59782.13
2019-04-25T08:28:55.012Z,59814.64
2019-04-25T08:31:15.110Z,59785.18
2019-04-25T08:33:46.441Z,59790.26
2019-04-25T08:36:13.858Z,59814.64
2019-04-25T08:38:44.413Z,59804.48
2019-04-25T08:41:17.742Z,59805.50
2019-04-25T08:43:46.146Z,59797.37
2019-04-25T08:46:14.532Z,59780.09
2019-04-25T08:49:02.389Z,59798.38
2019-04-25T08:51:34.790Z,59799.40
2019-04-25T08:54:20.150Z,59759.78
2019-04-25T08:56:48.607Z,59759.78
2019-04-25T08:59:40.647Z,59790.26
2019-04-25T09:02:06.385Z,59755.71
2019-04-25T09:04:40.112Z,59770.95
2019-04-25T09:07:08.653Z,59792.29
2019-04-25T09:09:37.868Z,59767.90
2019-04-25T09:12:06.602Z,59768.92
2019-04-25T09:14:36.475Z,59772.98
2019-04-25T09:17:05.256Z,59775.02
2019-04-25T09:19:36.229Z,59755.71
2019-04-25T09:22:04.665Z,59769.94
2019-04-25T09:24:33.503Z,59775.02
2019-04-25T09:27:03.720Z,59749.61
2019-04-25T09:29:34.237Z,59777.05
2019-04-25T09:32:03.750Z,59780.09
2019-04-25T09:34:33.584Z,59768.92
2019-04-25T09:37:03.176Z,59761.81
2019-04-25T09:39:36.881Z,59734.37
2019-04-25T09:42:05.461Z,59770.95
2019-04-25T09:44:39.305Z,59726.25
2019-04-25T09:47:08.073Z,59748.60
2019-04-25T09:49:39.069Z,59734.37
2019-04-25T09:52:09.210Z,59746.57
2019-04-25T09:54:56.746Z,59741.49
2019-04-25T09:57:34.206Z,59749.61
2019-04-25T10:00:03.939Z,59714.05
2019-04-25T10:02:32.500Z,59708.98
2019-04-25T10:05:00.947Z,59654.11
2019-04-25T10:07:29.345Z,59690.69
2019-04-25T10:09:57.810Z,59660.21
2019-04-25T10:12:26.195Z,59674.43
2019-04-25T10:15:04.439Z,59680.53
2019-04-25T10:17:33.819Z,59701.86
2019-04-25T10:20:02.305Z,59671.38
2019-04-25T10:22:30.698Z,59704.91
2019-04-25T10:25:00.792Z,59697.80
2019-04-25T10:27:31.321Z,59664.27
2019-04-25T10:29:59.703Z,59730.31
2019-04-25T10:32:28.310Z,60287.12
2019-04-25T10:34:56.719Z,60315.57
2019-04-25T10:37:25.109Z,60324.72
2019-04-25T10:39:55.528Z,60316.59
2019-04-25T10:42:24.344Z,60318.62
2019-04-25T10:44:56.632Z,60304.40
2019-04-25T10:47:24.477Z,60320.66
2019-04-25T10:49:53.684Z,60292.21
2019-04-25T10:52:23.708Z,60291.19
2019-04-25T10:54:52.634Z,60276.96
2019-04-25T10:57:22.799Z,60278.99
2019-04-25T11:00:00.362Z,60299.32
2019-04-25T11:02:23.485Z,60287.12
2019-04-25T11:04:59.655Z,60297.29
2019-04-25T11:07:28.247Z,60316.59
2019-04-25T11:09:56.761Z,60305.41
2019-04-25T11:12:25.584Z,60314.56
2019-04-25T11:14:59.447Z,60280.01
2019-04-25T11:17:28.085Z,60303.38
2019-04-25T11:19:56.479Z,60308.46
2019-04-25T11:22:24.910Z,60305.41
2019-04-25T11:24:53.310Z,60288.14
2019-04-25T11:27:21.779Z,60318.62
2019-04-25T11:29:50.746Z,60294.24
2019-04-25T11:32:20.783Z,60295.25
2019-04-25T11:34:49.269Z,60292.21
2019-04-25T11:37:19.550Z,60276.96
2019-04-25T11:40:04.773Z,60268.83
2019-04-25T11:42:33.867Z,60248.51
2019-04-25T11:45:04.479Z,60251.56
2019-04-25T11:47:33.472Z,60253.59
2019-04-25T11:50:01.937Z,60232.25
2019-04-25T11:52:30.481Z,60274.93
2019-04-25T11:54:58.884Z,60250.54
2019-04-25T11:57:27.278Z,60271.88
2019-04-25T11:59:55.865Z,60269.85
2019-04-25T12:02:25.327Z,60269.85
2019-04-25T12:04:54.966Z,60265.79
2019-04-25T12:07:23.906Z,60241.40
2019-04-25T12:09:54.104Z,60254.61
2019-04-25T12:12:23.668Z,60240.38
2019-04-25T12:14:54.040Z,60251.56
2019-04-25T12:17:23.390Z,60242.41
2019-04-25T12:19:53.617Z,60242.41
2019-04-25T12:22:21.933Z,60263.75
2019-04-25T12:24:50.548Z,60273.91
2019-04-25T12:27:19.189Z,60271.88
2019-04-25T12:29:47.588Z,60253.59
2019-04-25T12:32:20.468Z,60263.75
2019-04-25T12:34:49.500Z,60242.41
2019-04-25T12:37:18.406Z,60267.82
2019-04-25T12:39:47.107Z,60250.54
2019-04-25T12:42:15.562Z,60263.75
2019-04-25T12:44:47.362Z,60273.91
2019-04-25T12:47:20.005Z,60255.63
2019-04-25T12:49:48.687Z,60275.95
2019-04-25T12:52:17.052Z,60255.63
2019-04-25T12:54:45.457Z,60261.72
2019-04-25T12:57:15.830Z,60277.98
2019-04-25T12:59:45.172Z,60270.87
2019-04-25T13:02:13.852Z,60260.71
2019-04-25T13:04:44.000Z,60249.53
2019-04-25T13:07:13.716Z,60251.56
2019-04-25T13:09:42.185Z,60239.36
2019-04-25T13:12:10.743Z,60260.71
2019-04-25T13:14:39.157Z,60244.45
2019-04-25T13:17:08.699Z,60226.16
2019-04-25T13:19:37.643Z,60246.48
2019-04-25T13:22:08.044Z,60237.33
2019-04-25T13:24:36.743Z,60241.40
2019-04-25T13:27:16.171Z,60229.20
2019-04-25T13:29:58.815Z,60247.49
2019-04-25T13:32:34.795Z,60237.33
2019-04-25T13:35:04.898Z,60239.36
2019-04-25T13:37:34.160Z,60231.24
2019-04-25T13:40:03.372Z,60268.83
2019-04-25T13:42:33.279Z,60255.63
2019-04-25T13:45:03.131Z,60259.69
2019-04-25T13:47:32.062Z,60272.90
2019-04-25T13:50:00.398Z,60262.74
2019-04-25T13:52:28.975Z,60242.41
2019-04-25T13:54:57.664Z,60256.64
2019-04-25T13:57:26.296Z,60250.54
2019-04-25T13:59:54.849Z,60251.56
2019-04-25T14:02:24.665Z,60259.69
2019-04-25T14:04:53.835Z,60261.72
2019-04-25T14:07:22.964Z,60257.66
2019-04-25T14:09:53.244Z,60274.93
2019-04-25T14:12:23.889Z,60231.24
2019-04-25T14:14:53.955Z,60257.66
2019-04-25T14:17:31.543Z,60254.61
2019-04-25T14:20:04.281Z,60253.59
2019-04-25T14:22:33.961Z,60256.64
2019-04-25T14:25:03.954Z,60260.71
2019-04-25T14:27:33.941Z,60234.29
2019-04-25T14:30:03.881Z,60269.85
2019-04-25T14:32:37.123Z,60267.82
2019-04-25T14:35:09.703Z,60270.87
2019-04-25T14:37:39.821Z,60265.79
2019-04-25T14:40:10.462Z,60262.74
2019-04-25T14:42:38.989Z,60267.82
2019-04-25T14:45:09.814Z,60252.57
2019-04-25T14:47:38.768Z,60280.01
2019-04-25T14:50:14.889Z,60260.71
2019-04-25T14:52:45.503Z,60256.64
2019-04-25T14:55:25.119Z,60274.93
2019-04-25T14:57:53.682Z,60276.96
2019-04-25T15:00:34.006Z,60254.61
2019-04-25T15:03:02.744Z,60259.69
2019-04-25T15:05:31.173Z,60259.69
2019-04-25T15:07:59.555Z,60251.56
2019-04-25T15:10:28.654Z,60252.57
2019-04-25T15:12:57.067Z,60267.82
2019-04-25T15:15:26.609Z,60267.82
2019-04-25T15:17:55.115Z,60260.71
2019-04-25T15:20:26.174Z,60264.77
2019-04-25T15:22:54.546Z,60272.90
2019-04-25T15:25:23.260Z,60258.67
2019-04-25T15:27:52.052Z,60284.07
2019-04-25T15:30:30.879Z,60257.66
2019-04-25T15:32:59.684Z,60281.03
2019-04-25T15:35:42.275Z,60262.74
2019-04-25T15:38:12.377Z,60268.83
2019-04-25T15:40:48.659Z,60254.61
2019-04-25T15:43:26.163Z,60280.01
2019-04-25T15:46:03.917Z,60275.95
2019-04-25T15:48:33.257Z,60276.96
2019-04-25T15:51:01.686Z,60275.95
2019-04-25T15:53:30.710Z,60271.88
2019-04-25T15:55:59.060Z,60269.85
2019-04-25T15:58:27.638Z,60260.71
2019-04-25T16:00:57.581Z,60276.96
2019-04-25T16:03:30.903Z,60270.87
2019-04-25T16:05:59.297Z,60273.91
2019-04-25T16:08:28.798Z,60274.93
2019-04-25T16:10:59.197Z,60258.67
2019-04-25T16:13:28.242Z,60263.75
2019-04-25T16:15:56.761Z,60268.83
2019-04-25T16:18:25.140Z,60275.95
2019-04-25T16:20:53.917Z,60262.74
2019-04-25T16:23:22.688Z,60286.11
2019-04-25T16:25:51.146Z,60288.14
2019-04-25T16:28:19.549Z,60288.14
2019-04-25T16:30:48.187Z,60292.21
2019-04-25T16:33:16.893Z,60269.85
2019-04-25T16:35:45.343Z,60263.75
2019-04-25T16:38:14.292Z,60270.87
2019-04-25T16:40:42.694Z,60277.98
2019-04-25T16:43:13.085Z,60305.41
2019-04-25T16:45:41.519Z,60296.27
2019-04-25T16:48:10.214Z,60286.11
2019-04-25T16:50:38.849Z,60304.40
2019-04-25T16:53:07.317Z,60297.29
2019-04-25T16:55:36.628Z,60321.67
2019-04-25T16:58:05.376Z,60310.50
2019-04-25T17:00:50.889Z,60300.34
2019-04-25T17:03:21.003Z,60318.62
2019-04-25T17:05:49.950Z,60321.67
2019-04-25T17:08:19.087Z,60321.67
2019-04-25T17:10:47.639Z,60324.72
2019-04-25T17:13:16.560Z,60314.56
2019-04-25T17:16:03.245Z,60311.51
2019-04-25T17:18:55.834Z,60314.56
2019-04-25T17:21:24.617Z,60310.50
2019-04-25T17:23:53.272Z,60323.71
2019-04-25T17:26:27.770Z,60314.56
2019-04-25T17:29:00.905Z,60322.69
2019-04-25T17:31:34.069Z,60317.61
2019-04-25T17:34:07.234Z,60345.04
2019-04-25T17:36:43.461Z,60316.59
2019-04-25T17:39:33.551Z,60325.74
2019-04-25T17:42:04.190Z,60318.62
2019-04-25T17:44:32.913Z,60323.71
2019-04-25T17:47:06.397Z,60328.79
2019-04-25T17:49:32.856Z,60314.56
2019-04-25T17:52:01.286Z,60334.88
2019-04-25T17:54:29.946Z,60325.74
2019-04-25T17:56:58.778Z,60331.84
2019-04-25T17:59:27.147Z,60330.82
2019-04-25T18:01:55.661Z,60326.75
2019-04-25T18:04:24.056Z,60307.45
2019-04-25T18:06:52.657Z,60329.80
2019-04-25T18:09:22.530Z,60330.82
2019-04-25T18:11:50.915Z,60338.95
2019-04-25T18:14:19.294Z,60339.96
2019-04-25T18:16:49.171Z,60321.67
2019-04-25T18:19:35.488Z,60349.11
2019-04-25T18:22:09.172Z,60342.00
2019-04-25T18:24:55.651Z,60345.04
2019-04-25T18:27:29.379Z,60334.88
2019-04-25T18:29:57.829Z,60342.00
2019-04-25T18:32:27.954Z,60338.95
2019-04-25T18:34:58.005Z,60342.00
2019-04-25T18:37:43.196Z,60337.93
2019-04-25T18:40:16.634Z,60350.12
2019-04-25T18:42:49.987Z,60345.04
2019-04-25T18:45:20.048Z,60351.14
2019-04-25T18:47:48.463Z,60320.66
2019-04-25T18:50:18.532Z,60329.80
2019-04-25T18:52:48.576Z,60318.62
2019-04-25T18:55:27.363Z,60342.00
2019-04-25T18:58:09.247Z,60350.12
2019-04-25T19:00:39.293Z,60353.18
2019-04-25T19:03:26.203Z,60366.39
2019-04-25T19:06:00.622Z,60377.56
2019-04-25T19:08:29.021Z,60354.19
2019-04-25T19:10:57.441Z,60334.88
2019-04-25T19:13:28.007Z,60345.04
2019-04-25T19:15:56.766Z,60366.39
2019-04-25T19:18:25.161Z,60360.29
2019-04-25T19:20:53.552Z,60351.14
2019-04-25T19:23:22.287Z,60353.18
2019-04-25T19:25:52.075Z,60369.43
2019-04-25T19:28:20.536Z,60357.24
2019-04-25T19:30:48.966Z,60367.40
2019-04-25T19:33:17.805Z,60351.14
2019-04-25T19:35:46.377Z,59758.76
2019-04-25T19:38:14.887Z,59728.28
2019-04-25T19:40:45.952Z,59741.49
2019-04-25T19:43:19.168Z,59745.55
2019-04-25T19:45:47.727Z,59743.52
2019-04-25T19:48:16.191Z,59782.13
2019-04-25T19:50:44.652Z,59745.55
2019-04-25T19:53:13.267Z,59749.61
2019-04-25T19:55:42.126Z,59774.00
2019-04-25T19:58:11.936Z,59759.78
2019-04-25T20:00:41.560Z,59763.84
2019-04-25T20:03:12.283Z,59762.82
2019-04-25T20:05:48.438Z,59749.61
2019-04-25T20:08:24.499Z,59745.55
2019-04-25T20:11:01.854Z,59777.05
2019-04-25T20:13:30.511Z,59724.21
2019-04-25T20:15:59.142Z,59782.13
2019-04-25T20:18:28.006Z,59767.90
2019-04-25T20:20:56.543Z,59753.68
2019-04-25T20:23:24.940Z,59759.78
2019-04-25T20:25:56.214Z,59779.08
2019-04-25T20:28:23.535Z,59756.73
2019-04-25T20:30:51.913Z,59749.61
2019-04-25T20:33:20.326Z,59757.75
2019-04-25T20:35:49.228Z,59761.81
2019-04-25T20:38:17.619Z,59756.73
2019-04-25T20:40:46.815Z,59783.14
2019-04-25T20:43:15.983Z,59758.76
2019-04-25T20:45:44.371Z,59765.87
2019-04-25T20:48:13.095Z,59801.43
2019-04-25T20:50:41.482Z,59796.35
2019-04-25T20:53:09.863Z,59749.61
2019-04-25T20:55:38.549Z,59790.26
2019-04-25T20:58:06.954Z,59779.08
2019-04-25T21:00:41.091Z,59806.52
2019-04-25T21:03:09.546Z,59781.11
2019-04-25T21:05:37.998Z,59785.18
2019-04-25T21:08:06.804Z,59779.08
2019-04-25T21:10:35.197Z,59775.02
2019-04-25T21:13:05.236Z,59787.21
2019-04-25T21:15:35.269Z,59787.21
2019-04-25T21:18:17.633Z,59790.26
2019-04-25T21:20:46.024Z,59781.11
2019-04-25T21:23:14.706Z,59777.05
2019-04-25T21:25:43.108Z,59793.30
2019-04-25T21:28:11.499Z,59767.90
2019-04-25T21:30:40.167Z,59794.32
2019-04-25T21:33:08.564Z,59794.32
2019-04-25T21:35:37.241Z,59786.19
2019-04-25T21:38:05.623Z,59778.06
2019-04-25T21:40:53.045Z,59780.09
2019-04-25T21:43:23.876Z,59796.35
2019-04-25T21:45:52.816Z,59809.56
2019-04-25T21:48:22.585Z,59779.08
2019-04-25T21:50:53.496Z,59765.87
2019-04-25T21:53:21.966Z,59752.66
2019-04-25T21:55:50.804Z,59793.30
2019-04-25T21:58:19.374Z,59764.86
2019-04-25T22:00:56.591Z,59781.11
2019-04-25T22:03:26.516Z,59771.97
2019-04-25T22:05:56.740Z,59803.46
2019-04-25T22:08:25.618Z,59766.89
2019-04-25T22:10:54.955Z,59787.21
2019-04-25T22:13:24.375Z,59780.09
2019-04-25T22:15:53.528Z,59774.00
2019-04-25T22:18:22.516Z,59796.35
2019-04-25T22:20:50.963Z,59787.21
2019-04-25T22:23:19.624Z,59766.89
2019-04-25T22:25:48.282Z,59791.27
2019-04-25T22:28:17.253Z,59785.18
2019-04-25T22:30:47.676Z,59786.19
2019-04-25T22:33:20.851Z,59804.48
2019-04-25T22:35:53.899Z,59763.84
2019-04-25T22:38:22.790Z,59776.03
2019-04-25T22:40:51.408Z,59786.19
2019-04-25T22:43:20.946Z,59779.08
2019-04-25T22:45:49.889Z,59803.46
2019-04-25T22:48:20.157Z,59768.92
2019-04-25T22:50:48.724Z,59777.05
2019-04-25T22:53:22.763Z,59796.35
2019-04-25T22:55:47.309Z,59822.77
2019-04-25T22:58:15.720Z,59784.16
2019-04-25T23:00:44.199Z,59800.42
2019-04-25T23:03:14.227Z,59798.38
2019-04-25T23:05:47.487Z,59832.93
2019-04-25T23:08:16.217Z,59801.43
2019-04-25T23:10:44.601Z,59804.48
2019-04-25T23:13:13.370Z,59815.66
2019-04-25T23:15:41.755Z,59784.16
2019-04-25T23:18:11.400Z,59800.42
2019-04-25T23:20:39.816Z,59808.55
2019-04-25T23:23:09.617Z,59809.56
2019-04-25T23:25:55.225Z,59794.32
2019-04-25T23:28:25.603Z,59814.64
2019-04-25T23:30:58.383Z,59816.67
2019-04-25T23:33:26.763Z,59800.42
2019-04-25T23:35:55.643Z,59804.48
2019-04-25T23:38:24.312Z,59810.58
2019-04-25T23:40:52.691Z,59811.59
2019-04-25T23:43:21.334Z,59809.56
2019-04-25T23:45:49.716Z,59789.24
2019-04-25T23:48:18.530Z,59772.98
2019-04-25T23:50:46.920Z,59806.52
2019-04-25T23:53:15.296Z,59775.02
2019-04-25T23:55:43.808Z,59794.32
2019-04-25T23:58:12.184Z,59819.72
